Time,TemperatureF,DewpointF,PressureIn,WindDirection,WindDirectionDegrees,WindSpeedMPH,WindSpeedGustMPH,Humidity,HourlyPrecipIn,Conditions,Clouds,dailyrainin,SoftwareType,DateUTC
2013-09-02 06:55:00,55.6,54.0,29.89,West,261,0.0,0.0,95,0.00,,,0.00,weatherlink.com 1.10,2013-09-02 13:55:00,
2013-09-02 06:58:00,55.5,54.0,29.89,West,261,0.0,0.0,95,0.00,,,0.00,weatherlink.com 1.10,2013-09-02 13:58:00,
2013-09-02 07:14:00,55.8,54.0,29.89,West,261,0.0,0.0,95,0.00,,,0.00,weatherlink.com 1.10,2013-09-02 14:14:00,
2013-09-02 07:29:00,55.4,54.0,29.89,West,261,0.0,0.0,95,0.00,,,0.00,weatherlink.com 1.10,2013-09-02 14:29:00,
2013-09-02 07:44:00,55.9,55.0,29.89,West,261,0.0,0.0,96,0.00,,,0.00,weatherlink.com 1.10,2013-09-02 14:44:00,
2013-09-02 07:59:00,57.5,56.0,29.90,West,261,0.0,0.0,96,0.00,,,0.00,weatherlink.com 1.10,2013-09-02 14:59:00,
2013-09-02 08:14:00,59.0,58.0,29.90,West,261,0.0,0.0,96,0.00,,,0.00,weatherlink.com 1.10,2013-09-02 15:14:00,
2013-09-02 08:29:00,59.5,58.0,29.90,West,261,0.0,0.0,96,0.00,,,0.00,weatherlink.com 1.10,2013-09-02 15:29:00,
2013-09-02 08:44:00,60.7,59.0,29.91,West,261,0.0,0.0,95,0.00,,,0.00,weatherlink.com 1.10,2013-09-02 15:44:00,
2013-09-02 08:59:00,62.2,60.0,29.91,West,261,0.0,1.0,91,0.00,,,0.00,weatherlink.com 1.10,2013-09-02 15:59:00,
2013-09-02 09:14:00,64.4,60.0,29.91,West,261,0.0,1.0,86,0.00,,,0.00,weatherlink.com 1.10,2013-09-02 16:14:00,
2013-09-02 09:29:00,65.8,61.0,29.91,NW,313,0.0,3.0,83,0.00,,,0.00,weatherlink.com 1.10,2013-09-02 16:29:00,
2013-09-02 09:44:00,68.2,61.0,29.91,West,265,0.0,3.0,78,0.00,,,0.00,weatherlink.com 1.10,2013-09-02 16:44:00,
2013-09-02 09:59:00,69.8,62.0,29.91,SW,221,0.0,3.0,76,0.00,,,0.00,weatherlink.com 1.10,2013-09-02 16:59:00,
2013-09-02 10:14:00,71.5,63.0,29.90,SSW,213,0.0,1.0,74,0.00,,,0.00,weatherlink.com 1.10,2013-09-02 17:14:00,
2013-09-02 10:29:00,72.8,63.0,29.91,West,270,0.0,5.0,71,0.00,,,0.00,weatherlink.com 1.10,2013-09-02 17:29:00,
2013-09-02 10:44:00,74.7,63.0,29.89,SE,140,0.0,3.0,68,0.00,,,0.00,weatherlink.com 1.10,2013-09-02 17:44:00,
2013-09-02 10:59:00,76.3,64.0,29.89,WSW,241,0.0,4.0,65,0.00,,,0.00,weatherlink.com 1.10,2013-09-02 17:59:00,
2013-09-02 11:14:00,77.2,63.0,29.89,WSW,250,0.0,4.0,61,0.00,,,0.00,weatherlink.com 1.10,2013-09-02 18:14:00,
2013-09-02 11:29:00,78.3,63.0,29.89,WSW,252,0.0,5.0,60,0.00,,,0.00,weatherlink.com 1.10,2013-09-02 18:29:00,
2013-09-02 11:44:00,79.1,63.0,29.88,WNW,283,1.0,6.0,59,0.00,,,0.00,weatherlink.com 1.10,2013-09-02 18:44:00,
2013-09-02 11:59:00,80.5,64.0,29.88,West,264,0.0,8.0,57,0.00,,,0.00,weatherlink.com 1.10,2013-09-02 18:59:00,
2013-09-02 12:14:00,82.3,63.0,29.88,WSW,244,1.0,6.0,53,0.00,,,0.00,weatherlink.com 1.10,2013-09-02 19:14:00,
2013-09-02 12:29:00,81.5,63.0,29.88,WNW,303,2.0,7.0,53,0.00,,,0.00,weatherlink.com 1.10,2013-09-02 19:29:00,
2013-09-02 12:44:00,79.6,63.0,29.88,WSW,248,1.0,12.0,57,0.00,,,0.00,weatherlink.com 1.10,2013-09-02 19:44:00,
2013-09-02 13:00:00,79.2,63.0,29.88,West,275,1.0,10.0,57,0.00,,,0.00,weatherlink.com 1.10,2013-09-02 20:00:00,
2013-09-02 13:15:00,78.7,62.0,29.87,NW,306,1.0,7.0,57,0.00,,,0.00,weatherlink.com 1.10,2013-09-02 20:15:00,
2013-09-02 13:30:00,78.7,62.0,29.87,NNW,336,2.0,12.0,57,0.00,,,0.00,weatherlink.com 1.10,2013-09-02 20:30:00,
2013-09-02 13:45:00,78.5,62.0,29.87,WNW,291,6.0,13.0,58,0.00,,,0.00,weatherlink.com 1.10,2013-09-02 20:45:00,
2013-09-02 14:00:00,77.8,62.0,29.87,West,265,5.0,16.0,59,0.00,,,0.00,weatherlink.com 1.10,2013-09-02 21:00:00,
2013-09-02 14:15:00,77.6,63.0,29.87,West,274,3.0,13.0,60,0.00,,,0.00,weatherlink.com 1.10,2013-09-02 21:15:00,
2013-09-02 14:30:00,77.6,63.0,29.86,WSW,257,8.0,13.0,60,0.00,,,0.00,weatherlink.com 1.10,2013-09-02 21:30:00,
2013-09-02 14:45:00,77.1,63.0,29.86,West,281,1.0,13.0,61,0.00,,,0.00,weatherlink.com 1.10,2013-09-02 21:45:00,
2013-09-02 15:00:00,77.1,63.0,29.85,West,279,6.0,11.0,61,0.00,,,0.00,weatherlink.com 1.10,2013-09-02 22:00:00,
2013-09-02 15:15:00,77.3,63.0,29.85,WNW,298,4.0,11.0,62,0.00,,,0.00,weatherlink.com 1.10,2013-09-02 22:15:00,
2013-09-02 15:30:00,78.2,64.0,29.84,West,264,3.0,10.0,61,0.00,,,0.00,weatherlink.com 1.10,2013-09-02 22:30:00,
2013-09-02 15:45:00,78.2,64.0,29.84,WSW,240,5.0,12.0,61,0.00,,,0.00,weatherlink.com 1.10,2013-09-02 22:45:00,
2013-09-02 16:00:00,78.7,64.0,29.84,West,281,4.0,8.0,60,0.00,,,0.00,weatherlink.com 1.10,2013-09-02 23:00:00,
2013-09-02 16:15:00,77.9,63.0,29.84,WSW,248,2.0,13.0,61,0.00,,,0.00,weatherlink.com 1.10,2013-09-02 23:15:00,
2013-09-02 16:30:00,77.7,64.0,29.84,South,191,3.0,9.0,63,0.00,,,0.00,weatherlink.com 1.10,2013-09-02 23:30:00,
2013-09-02 16:45:00,77.6,63.0,29.84,WSW,251,2.0,9.0,62,0.00,,,0.00,weatherlink.com 1.10,2013-09-02 23:45:00,
2013-09-02 17:00:00,76.4,63.0,29.84,WNW,300,3.0,10.0,64,0.00,,,0.00,weatherlink.com 1.10,2013-09-03 00:00:00,
2013-09-02 17:15:00,75.8,63.0,29.83,WSW,257,0.0,9.0,65,0.00,,,0.00,weatherlink.com 1.10,2013-09-03 00:15:00,
2013-09-02 17:30:00,76.1,63.0,29.83,West,269,1.0,6.0,64,0.00,,,0.00,weatherlink.com 1.10,2013-09-03 00:30:00,
2013-09-02 17:45:00,74.9,63.0,29.83,WSW,253,3.0,12.0,66,0.00,,,0.00,weatherlink.com 1.10,2013-09-03 00:45:00,
2013-09-02 18:00:00,73.7,62.0,29.83,WNW,299,2.0,10.0,68,0.00,,,0.00,weatherlink.com 1.10,2013-09-03 01:00:00,
2013-09-02 18:15:00,73.4,63.0,29.82,WSW,249,4.0,9.0,69,0.00,,,0.00,weatherlink.com 1.10,2013-09-03 01:15:00,
2013-09-02 18:30:00,73.1,62.0,29.83,West,265,2.0,7.0,69,0.00,,,0.00,weatherlink.com 1.10,2013-09-03 01:30:00,
2013-09-02 18:45:00,72.6,62.0,29.83,West,265,1.0,7.0,70,0.00,,,0.00,weatherlink.com 1.10,2013-09-03 01:45:00,
2013-09-02 19:00:00,71.9,62.0,29.83,WNW,285,1.0,6.0,70,0.00,,,0.00,weatherlink.com 1.10,2013-09-03 02:00:00,
2013-09-02 19:15:00,70.3,61.0,29.83,WNW,288,0.0,8.0,73,0.00,,,0.00,weatherlink.com 1.10,2013-09-03 02:15:00,
2013-09-02 19:30:00,69.2,61.0,29.83,West,262,0.0,4.0,75,0.00,,,0.00,weatherlink.com 1.10,2013-09-03 02:30:00,
2013-09-02 19:45:00,68.0,60.0,29.84,West,280,0.0,4.0,76,0.00,,,0.00,weatherlink.com 1.10,2013-09-03 02:45:00,
2013-09-02 20:00:00,67.1,60.0,29.84,West,280,0.0,2.0,77,0.00,,,0.00,weatherlink.com 1.10,2013-09-03 03:00:00,
2013-09-02 20:15:00,66.3,59.0,29.85,West,280,0.0,2.0,78,0.00,,,0.00,weatherlink.com 1.10,2013-09-03 03:15:00,
2013-09-02 20:30:00,65.6,59.0,29.85,West,280,0.0,1.0,79,0.00,,,0.00,weatherlink.com 1.10,2013-09-03 03:30:00,
2013-09-02 20:45:00,64.8,59.0,29.86,West,280,0.0,0.0,80,0.00,,,0.00,weatherlink.com 1.10,2013-09-03 03:45:00,
2013-09-02 21:00:00,64.0,58.0,29.86,West,280,0.0,0.0,82,0.00,,,0.00,weatherlink.com 1.10,2013-09-03 04:00:00,
2013-09-02 21:15:00,63.4,58.0,29.86,West,280,0.0,0.0,83,0.00,,,0.00,weatherlink.com 1.10,2013-09-03 04:15:00,
2013-09-02 21:30:00,62.7,58.0,29.86,West,280,0.0,1.0,84,0.00,,,0.00,weatherlink.com 1.10,2013-09-03 04:30:00,
2013-09-02 21:45:00,61.9,58.0,29.87,West,280,0.0,0.0,86,0.00,,,0.00,weatherlink.com 1.10,2013-09-03 04:45:00,
2013-09-02 22:00:00,61.1,57.0,29.87,West,280,0.0,0.0,87,0.00,,,0.00,weatherlink.com 1.10,2013-09-03 05:00:00,
2013-09-02 22:15:00,60.5,57.0,29.87,West,280,0.0,0.0,89,0.00,,,0.00,weatherlink.com 1.10,2013-09-03 05:15:00,
2013-09-02 22:30:00,59.7,57.0,29.87,West,280,0.0,0.0,89,0.00,,,0.00,weatherlink.com 1.10,2013-09-03 05:30:00,
2013-09-02 22:45:00,59.2,56.0,29.87,West,280,0.0,0.0,90,0.00,,,0.00,weatherlink.com 1.10,2013-09-03 05:45:00,
2013-09-02 23:00:00,58.8,57.0,29.88,West,280,0.0,0.0,92,0.00,,,0.00,weatherlink.com 1.10,2013-09-03 06:00:00,
2013-09-02 23:15:00,58.6,56.0,29.88,West,280,0.0,0.0,92,0.00,,,0.00,weatherlink.com 1.10,2013-09-03 06:15:00,
2013-09-02 23:30:00,58.3,56.0,29.88,West,280,0.0,0.0,93,0.00,,,0.00,weatherlink.com 1.10,2013-09-03 06:30:00,
2013-09-02 23:45:00,58.1,56.0,29.88,West,280,0.0,0.0,93,0.00,,,0.00,weatherlink.com 1.10,2013-09-03 06:45:00,